createdAt,value
2023-05-26T00:02:09.515Z,98573.47
2023-05-26T00:06:34.466Z,98576.19
2023-05-26T00:11:10.049Z,98574.40
2023-05-26T00:15:38.220Z,98579.89
2023-05-26T00:20:16.405Z,98573.13
2023-05-26T00:24:51.297Z,98567.63
2023-05-26T00:29:21.972Z,98570.42
2023-05-26T00:34:03.608Z,98572.16
2023-05-26T00:38:33.588Z,98570.94
2023-05-26T00:42:58.704Z,98568.46
2023-05-26T00:47:24.661Z,98565.38
2023-05-26T00:51:30.467Z,98564.36
2023-05-26T00:56:19.642Z,98559.22
2023-05-26T01:00:45.639Z,98554.67
2023-05-26T01:05:21.261Z,98554.98
2023-05-26T01:09:59.160Z,98556.69
2023-05-26T01:14:47.295Z,98558.40
2023-05-26T01:19:25.383Z,98557.85
2023-05-26T01:23:47.613Z,98554.17
2023-05-26T01:28:36.304Z,98554.38
2023-05-26T01:33:33.360Z,98551.42
2023-05-26T01:38:00.341Z,98549.63
2023-05-26T01:43:24.831Z,98543.63
2023-05-26T01:48:42.283Z,98540.30
2023-05-26T01:53:37.974Z,98536.46
2023-05-26T02:03:16.551Z,98531.50
2023-05-26T02:07:46.305Z,98537.02
2023-05-26T02:12:13.201Z,98533.89
2023-05-26T02:21:55.355Z,98532.58
2023-05-26T02:26:50.566Z,98530.39
2023-05-26T02:31:38.567Z,98533.63
2023-05-26T02:36:16.419Z,98534.76
2023-05-26T02:40:55.426Z,98531.88
2023-05-26T02:45:18.584Z,98529.73
2023-05-26T02:50:30.365Z,98527.31
2023-05-26T02:54:58.380Z,98525.82
2023-05-26T03:09:15.394Z,98529.55
2023-05-26T03:14:43.644Z,98533.11
2023-05-26T03:19:49.271Z,98536.04
2023-05-26T03:24:54.814Z,98532.71
2023-05-26T03:30:23.401Z,98537.55
2023-05-26T03:35:38.816Z,98538.84
2023-05-26T03:40:30.771Z,98541.55
2023-05-26T03:45:38.373Z,98547.09
2023-05-26T03:50:07.717Z,98549.50
2023-05-26T03:54:32.862Z,98551.69
2023-05-26T03:59:05.723Z,98551.82
2023-05-26T04:03:42.146Z,98554.36
2023-05-26T04:08:12.316Z,98560.64
2023-05-26T04:12:46.331Z,98557.58
2023-05-26T04:17:34.584Z,98562.05
2023-05-26T04:22:05.327Z,98563.70
2023-05-26T04:26:37.654Z,98561.13
2023-05-26T04:31:27.531Z,98565.02
2023-05-26T04:41:19.287Z,98572.16
2023-05-26T04:45:45.660Z,98576.20
2023-05-26T04:50:35.773Z,98575.47
2023-05-26T04:56:01.653Z,98579.45
2023-05-26T05:00:37.774Z,98580.10
2023-05-26T05:05:21.874Z,98579.99
2023-05-26T05:09:49.496Z,98580.41
2023-05-26T05:14:13.485Z,98574.42
2023-05-26T05:18:44.592Z,98576.88
2023-05-26T07:48:44.078Z,98590.38
2023-05-26T07:58:54.303Z,98595.04
2023-05-26T08:18:27.172Z,98603.50
2023-05-26T08:22:52.883Z,98601.29
2023-05-26T08:27:35.015Z,98600.32
2023-05-26T08:32:50.521Z,98595.40
2023-05-26T08:37:14.550Z,98593.95
2023-05-26T08:41:47.388Z,98595.39
2023-05-26T08:46:57.231Z,98601.48
2023-05-26T08:57:03.397Z,98600.61
2023-05-26T09:11:34.368Z,98595.92
2023-05-26T09:16:26.114Z,98596.30
2023-05-26T09:37:17.864Z,98596.66
2023-05-26T09:42:34.659Z,98593.66
2023-05-26T09:47:04.749Z,98597.45
2023-05-26T09:51:39.023Z,98593.83
2023-05-26T10:01:58.935Z,98585.70
2023-05-26T10:11:54.374Z,98578.17
2023-05-26T10:17:07.362Z,98573.06
2023-05-26T10:21:49.431Z,98564.02
2023-05-26T10:26:25.583Z,98561.18
2023-05-26T10:41:17.439Z,98549.47
2023-05-26T10:45:41.325Z,98543.85
2023-05-26T10:50:39.733Z,98537.92
2023-05-26T10:55:08.453Z,98539.28
2023-05-26T11:00:01.766Z,98535.99
2023-05-26T11:04:35.809Z,98530.71
2023-05-26T11:09:08.490Z,98528.52
2023-05-26T11:13:34.388Z,98522.81
2023-05-26T11:23:13.840Z,98525.88
2023-05-26T11:28:22.454Z,98515.92
2023-05-26T11:38:30.552Z,98501.14
2023-05-26T11:43:04.003Z,98494.27
2023-05-26T11:47:39.895Z,98492.48
2023-05-26T11:52:22.024Z,98490.52
2023-05-26T11:57:42.587Z,98487.45
2023-05-26T12:02:22.336Z,98480.23
2023-05-26T12:06:48.900Z,98467.88
2023-05-26T12:16:10.201Z,98465.11
2023-05-26T12:20:45.727Z,98466.16
2023-05-26T12:25:24.718Z,98469.27
2023-05-26T12:30:36.429Z,98470.56
2023-05-26T12:35:30.598Z,98461.55
2023-05-26T12:40:05.641Z,98470.73
2023-05-26T13:34:06.818Z,98497.36
2023-05-26T14:34:08.853Z,98523.98
2023-05-26T19:49:44.001Z,98609.29
2023-05-26T22:04:42.053Z,98668.13
